sensor_id;sensor_type;location;lat;lon;timestamp;P1;durP1;ratioP1;P2;durP2;ratioP2
19004;SDS011;9635;52.078;8.648;2023-06-05T00:00:18;7.72;;;3.60;;
19004;SDS011;9635;52.078;8.648;2023-06-05T00:05:24;5.75;;;2.80;;
19004;SDS011;9635;52.078;8.648;2023-06-05T00:10:28;5.60;;;2.88;;
19004;SDS011;9635;52.078;8.648;2023-06-05T00:15:31;5.55;;;3.20;;
19004;SDS011;9635;52.078;8.648;2023-06-05T00:20:37;5.82;;;3.20;;
19004;SDS011;9635;52.078;8.648;2023-06-05T00:25:41;5.30;;;3.30;;
19004;SDS011;9635;52.078;8.648;2023-06-05T00:30:44;5.95;;;3.08;;
19004;SDS011;9635;52.078;8.648;2023-06-05T00:35:47;6.78;;;3.38;;
19004;SDS011;9635;52.078;8.648;2023-06-05T00:40:51;7.22;;;3.95;;
19004;SDS011;9635;52.078;8.648;2023-06-05T00:45:55;5.50;;;3.17;;
19004;SDS011;9635;52.078;8.648;2023-06-05T00:51:04;6.22;;;3.17;;
19004;SDS011;9635;52.078;8.648;2023-06-05T00:56:10;6.45;;;3.50;;
19004;SDS011;9635;52.078;8.648;2023-06-05T01:01:13;4.90;;;3.35;;
19004;SDS011;9635;52.078;8.648;2023-06-05T01:06:17;7.25;;;3.38;;
19004;SDS011;9635;52.078;8.648;2023-06-05T01:11:24;8.80;;;3.70;;
19004;SDS011;9635;52.078;8.648;2023-06-05T01:16:31;6.18;;;3.10;;
19004;SDS011;9635;52.078;8.648;2023-06-05T01:21:35;6.50;;;3.95;;
19004;SDS011;9635;52.078;8.648;2023-06-05T01:26:42;5.20;;;3.65;;
19004;SDS011;9635;52.078;8.648;2023-06-05T01:31:55;5.90;;;3.83;;
19004;SDS011;9635;52.078;8.648;2023-06-05T01:37:02;4.45;;;3.08;;
19004;SDS011;9635;52.078;8.648;2023-06-05T01:42:11;7.25;;;4.18;;
19004;SDS011;9635;52.078;8.648;2023-06-05T01:47:15;4.50;;;3.53;;
19004;SDS011;9635;52.078;8.648;2023-06-05T01:52:18;6.00;;;4.15;;
19004;SDS011;9635;52.078;8.648;2023-06-05T01:57:23;9.38;;;4.57;;
19004;SDS011;9635;52.078;8.648;2023-06-05T02:02:26;7.78;;;4.78;;
19004;SDS011;9635;52.078;8.648;2023-06-05T02:07:30;7.55;;;4.40;;
19004;SDS011;9635;52.078;8.648;2023-06-05T02:12:36;9.02;;;4.65;;
19004;SDS011;9635;52.078;8.648;2023-06-05T02:17:39;6.82;;;4.53;;
19004;SDS011;9635;52.078;8.648;2023-06-05T02:22:46;7.82;;;4.60;;
19004;SDS011;9635;52.078;8.648;2023-06-05T02:27:52;7.60;;;4.35;;
19004;SDS011;9635;52.078;8.648;2023-06-05T02:32:55;10.43;;;4.35;;
19004;SDS011;9635;52.078;8.648;2023-06-05T02:38:02;13.20;;;5.10;;
19004;SDS011;9635;52.078;8.648;2023-06-05T02:43:08;8.07;;;4.50;;
19004;SDS011;9635;52.078;8.648;2023-06-05T02:48:12;10.40;;;5.05;;
19004;SDS011;9635;52.078;8.648;2023-06-05T02:53:15;10.82;;;5.68;;
19004;SDS011;9635;52.078;8.648;2023-06-05T02:58:20;9.25;;;4.55;;
19004;SDS011;9635;52.078;8.648;2023-06-05T03:03:30;9.60;;;4.97;;
19004;SDS011;9635;52.078;8.648;2023-06-05T03:08:34;7.47;;;4.88;;
19004;SDS011;9635;52.078;8.648;2023-06-05T03:13:45;9.55;;;5.97;;
19004;SDS011;9635;52.078;8.648;2023-06-05T03:18:49;10.77;;;6.18;;
19004;SDS011;9635;52.078;8.648;2023-06-05T03:23:52;9.73;;;5.97;;
19004;SDS011;9635;52.078;8.648;2023-06-05T03:28:56;9.75;;;6.05;;
19004;SDS011;9635;52.078;8.648;2023-06-05T03:34:02;10.13;;;5.80;;
19004;SDS011;9635;52.078;8.648;2023-06-05T03:39:06;9.93;;;6.03;;
19004;SDS011;9635;52.078;8.648;2023-06-05T03:44:13;11.20;;;6.68;;
19004;SDS011;9635;52.078;8.648;2023-06-05T03:49:17;8.98;;;6.38;;
19004;SDS011;9635;52.078;8.648;2023-06-05T03:54:24;12.65;;;6.50;;
19004;SDS011;9635;52.078;8.648;2023-06-05T03:59:28;10.65;;;6.13;;
19004;SDS011;9635;52.078;8.648;2023-06-05T04:04:35;11.45;;;6.63;;
19004;SDS011;9635;52.078;8.648;2023-06-05T04:09:37;10.98;;;6.78;;
19004;SDS011;9635;52.078;8.648;2023-06-05T04:14:42;11.90;;;6.93;;
19004;SDS011;9635;52.078;8.648;2023-06-05T04:19:46;14.02;;;6.97;;
19004;SDS011;9635;52.078;8.648;2023-06-05T04:24:50;13.32;;;6.93;;
19004;SDS011;9635;52.078;8.648;2023-06-05T04:29:54;16.58;;;8.38;;
19004;SDS011;9635;52.078;8.648;2023-06-05T04:34:58;13.02;;;7.30;;
19004;SDS011;9635;52.078;8.648;2023-06-05T04:40:01;15.02;;;7.53;;
19004;SDS011;9635;52.078;8.648;2023-06-05T04:45:09;11.55;;;7.63;;
19004;SDS011;9635;52.078;8.648;2023-06-05T04:50:23;12.82;;;8.15;;
19004;SDS011;9635;52.078;8.648;2023-06-05T04:55:45;13.30;;;7.47;;
19004;SDS011;9635;52.078;8.648;2023-06-05T05:00:51;15.85;;;8.18;;
19004;SDS011;9635;52.078;8.648;2023-06-05T05:05:55;16.02;;;7.57;;
19004;SDS011;9635;52.078;8.648;2023-06-05T05:10:59;11.88;;;7.45;;
19004;SDS011;9635;52.078;8.648;2023-06-05T05:16:02;17.02;;;8.15;;
19004;SDS011;9635;52.078;8.648;2023-06-05T05:21:06;14.05;;;7.88;;
19004;SDS011;9635;52.078;8.648;2023-06-05T05:26:11;16.63;;;10.05;;
19004;SDS011;9635;52.078;8.648;2023-06-05T05:31:14;16.25;;;8.77;;
19004;SDS011;9635;52.078;8.648;2023-06-05T05:36:19;19.88;;;9.13;;
19004;SDS011;9635;52.078;8.648;2023-06-05T05:41:24;16.55;;;9.32;;
19004;SDS011;9635;52.078;8.648;2023-06-05T05:46:27;15.90;;;9.20;;
19004;SDS011;9635;52.078;8.648;2023-06-05T05:51:31;17.08;;;9.40;;
19004;SDS011;9635;52.078;8.648;2023-06-05T05:56:36;14.45;;;8.95;;
19004;SDS011;9635;52.078;8.648;2023-06-05T06:01:39;14.43;;;8.85;;
19004;SDS011;9635;52.078;8.648;2023-06-05T06:06:42;14.80;;;9.40;;
19004;SDS011;9635;52.078;8.648;2023-06-05T06:11:47;16.80;;;9.45;;
19004;SDS011;9635;52.078;8.648;2023-06-05T06:16:50;15.00;;;9.02;;
19004;SDS011;9635;52.078;8.648;2023-06-05T06:21:54;15.88;;;9.20;;
19004;SDS011;9635;52.078;8.648;2023-06-05T06:26:59;14.57;;;8.70;;
19004;SDS011;9635;52.078;8.648;2023-06-05T06:32:03;19.38;;;9.40;;
19004;SDS011;9635;52.078;8.648;2023-06-05T06:37:07;14.57;;;8.80;;
19004;SDS011;9635;52.078;8.648;2023-06-05T06:42:12;16.55;;;9.05;;
19004;SDS011;9635;52.078;8.648;2023-06-05T06:47:25;13.40;;;8.25;;
19004;SDS011;9635;52.078;8.648;2023-06-05T06:52:28;18.40;;;7.90;;
19004;SDS011;9635;52.078;8.648;2023-06-05T06:57:32;12.77;;;8.43;;
19004;SDS011;9635;52.078;8.648;2023-06-05T07:02:35;8.40;;;6.70;;
19004;SDS011;9635;52.078;8.648;2023-06-05T07:07:39;10.43;;;7.22;;
19004;SDS011;9635;52.078;8.648;2023-06-05T07:12:43;11.35;;;7.68;;
19004;SDS011;9635;52.078;8.648;2023-06-05T07:17:46;9.63;;;6.60;;
19004;SDS011;9635;52.078;8.648;2023-06-05T07:22:49;9.05;;;6.72;;
19004;SDS011;9635;52.078;8.648;2023-06-05T07:27:53;16.02;;;6.90;;
19004;SDS011;9635;52.078;8.648;2023-06-05T07:32:56;11.70;;;7.53;;
19004;SDS011;9635;52.078;8.648;2023-06-05T07:37:59;12.85;;;6.82;;
19004;SDS011;9635;52.078;8.648;2023-06-05T07:43:03;13.23;;;7.05;;
19004;SDS011;9635;52.078;8.648;2023-06-05T07:48:07;12.60;;;7.25;;
19004;SDS011;9635;52.078;8.648;2023-06-05T07:53:10;9.15;;;6.20;;
19004;SDS011;9635;52.078;8.648;2023-06-05T07:58:15;12.02;;;6.88;;
19004;SDS011;9635;52.078;8.648;2023-06-05T08:03:18;10.30;;;6.72;;
19004;SDS011;9635;52.078;8.648;2023-06-05T08:08:22;8.82;;;6.97;;
19004;SDS011;9635;52.078;8.648;2023-06-05T08:13:26;10.82;;;6.90;;
19004;SDS011;9635;52.078;8.648;2023-06-05T08:18:31;9.85;;;6.10;;
19004;SDS011;9635;52.078;8.648;2023-06-05T08:23:34;9.88;;;5.50;;
19004;SDS011;9635;52.078;8.648;2023-06-05T08:28:39;8.50;;;6.20;;
19004;SDS011;9635;52.078;8.648;2023-06-05T08:33:42;9.63;;;6.43;;
19004;SDS011;9635;52.078;8.648;2023-06-05T08:38:45;10.05;;;5.88;;
19004;SDS011;9635;52.078;8.648;2023-06-05T08:43:49;11.15;;;5.70;;
19004;SDS011;9635;52.078;8.648;2023-06-05T08:48:53;6.50;;;5.30;;
19004;SDS011;9635;52.078;8.648;2023-06-05T08:54:01;10.35;;;5.93;;
19004;SDS011;9635;52.078;8.648;2023-06-05T08:59:07;8.18;;;5.30;;
19004;SDS011;9635;52.078;8.648;2023-06-05T09:04:10;13.00;;;5.68;;
19004;SDS011;9635;52.078;8.648;2023-06-05T09:09:13;9.82;;;4.50;;
19004;SDS011;9635;52.078;8.648;2023-06-05T09:14:19;6.10;;;4.70;;
19004;SDS011;9635;52.078;8.648;2023-06-05T09:19:35;8.73;;;4.80;;
19004;SDS011;9635;52.078;8.648;2023-06-05T09:24:39;11.32;;;4.50;;
19004;SDS011;9635;52.078;8.648;2023-06-05T09:29:44;8.95;;;4.45;;
19004;SDS011;9635;52.078;8.648;2023-06-05T09:34:54;9.63;;;4.57;;
19004;SDS011;9635;52.078;8.648;2023-06-05T09:40:01;7.57;;;4.28;;
19004;SDS011;9635;52.078;8.648;2023-06-05T09:45:08;8.05;;;4.32;;
19004;SDS011;9635;52.078;8.648;2023-06-05T09:50:20;6.90;;;4.50;;
19004;SDS011;9635;52.078;8.648;2023-06-05T09:55:24;10.77;;;4.25;;
19004;SDS011;9635;52.078;8.648;2023-06-05T10:00:31;8.38;;;4.70;;
19004;SDS011;9635;52.078;8.648;2023-06-05T10:05:35;7.63;;;4.50;;
19004;SDS011;9635;52.078;8.648;2023-06-05T10:10:40;9.70;;;4.50;;
19004;SDS011;9635;52.078;8.648;2023-06-05T10:15:46;7.72;;;4.30;;
19004;SDS011;9635;52.078;8.648;2023-06-05T10:20:49;11.68;;;4.35;;
19004;SDS011;9635;52.078;8.648;2023-06-05T10:25:52;5.57;;;3.30;;
19004;SDS011;9635;52.078;8.648;2023-06-05T10:31:07;5.10;;;3.22;;
19004;SDS011;9635;52.078;8.648;2023-06-05T10:36:31;7.05;;;3.83;;
19004;SDS011;9635;52.078;8.648;2023-06-05T10:41:49;8.18;;;2.58;;
19004;SDS011;9635;52.078;8.648;2023-06-05T10:46:53;6.03;;;2.95;;
19004;SDS011;9635;52.078;8.648;2023-06-05T10:51:56;3.45;;;2.55;;
19004;SDS011;9635;52.078;8.648;2023-06-05T10:57:02;4.20;;;2.97;;
19004;SDS011;9635;52.078;8.648;2023-06-05T11:02:25;4.82;;;2.65;;
19004;SDS011;9635;52.078;8.648;2023-06-05T11:07:28;8.75;;;2.63;;
19004;SDS011;9635;52.078;8.648;2023-06-05T11:23:37;4.05;;;2.10;;
19004;SDS011;9635;52.078;8.648;2023-06-05T11:28:40;3.22;;;1.83;;
19004;SDS011;9635;52.078;8.648;2023-06-05T11:33:45;6.15;;;2.30;;
19004;SDS011;9635;52.078;8.648;2023-06-05T11:38:52;2.58;;;1.80;;
19004;SDS011;9635;52.078;8.648;2023-06-05T11:43:55;2.38;;;2.15;;
19004;SDS011;9635;52.078;8.648;2023-06-05T11:49:00;3.65;;;1.90;;
19004;SDS011;9635;52.078;8.648;2023-06-05T11:54:02;3.08;;;1.85;;
19004;SDS011;9635;52.078;8.648;2023-06-05T11:59:08;3.83;;;2.10;;
19004;SDS011;9635;52.078;8.648;2023-06-05T12:04:12;3.78;;;2.08;;
19004;SDS011;9635;52.078;8.648;2023-06-05T12:09:17;3.00;;;1.90;;
19004;SDS011;9635;52.078;8.648;2023-06-05T12:14:30;4.32;;;1.90;;
19004;SDS011;9635;52.078;8.648;2023-06-05T12:19:35;3.78;;;2.00;;
19004;SDS011;9635;52.078;8.648;2023-06-05T12:24:38;2.53;;;2.10;;
19004;SDS011;9635;52.078;8.648;2023-06-05T12:29:51;3.75;;;2.33;;
19004;SDS011;9635;52.078;8.648;2023-06-05T12:34:57;2.75;;;2.00;;
19004;SDS011;9635;52.078;8.648;2023-06-05T12:45:13;4.15;;;2.00;;
19004;SDS011;9635;52.078;8.648;2023-06-05T12:50:17;5.55;;;2.78;;
19004;SDS011;9635;52.078;8.648;2023-06-05T12:55:20;4.28;;;2.20;;
19004;SDS011;9635;52.078;8.648;2023-06-05T13:00:23;5.45;;;2.22;;
19004;SDS011;9635;52.078;8.648;2023-06-05T13:05:27;3.83;;;2.13;;
19004;SDS011;9635;52.078;8.648;2023-06-05T13:10:30;3.65;;;2.20;;
19004;SDS011;9635;52.078;8.648;2023-06-05T13:15:33;2.67;;;2.28;;
19004;SDS011;9635;52.078;8.648;2023-06-05T13:20:40;3.75;;;2.28;;
19004;SDS011;9635;52.078;8.648;2023-06-05T13:25:43;3.10;;;2.45;;
19004;SDS011;9635;52.078;8.648;2023-06-05T13:30:46;4.65;;;2.47;;
19004;SDS011;9635;52.078;8.648;2023-06-05T13:35:50;6.25;;;2.28;;
19004;SDS011;9635;52.078;8.648;2023-06-05T13:40:54;6.07;;;2.00;;
19004;SDS011;9635;52.078;8.648;2023-06-05T13:45:57;2.97;;;1.90;;
19004;SDS011;9635;52.078;8.648;2023-06-05T13:51:02;4.57;;;2.13;;
19004;SDS011;9635;52.078;8.648;2023-06-05T13:56:05;12.57;;;2.60;;
19004;SDS011;9635;52.078;8.648;2023-06-05T14:01:09;5.40;;;2.25;;
19004;SDS011;9635;52.078;8.648;2023-06-05T14:06:13;2.03;;;1.80;;
19004;SDS011;9635;52.078;8.648;2023-06-05T14:11:16;2.83;;;1.90;;
19004;SDS011;9635;52.078;8.648;2023-06-05T14:16:19;3.03;;;1.90;;
19004;SDS011;9635;52.078;8.648;2023-06-05T14:21:24;2.03;;;1.92;;
19004;SDS011;9635;52.078;8.648;2023-06-05T14:26:27;2.30;;;2.10;;
19004;SDS011;9635;52.078;8.648;2023-06-05T14:31:32;3.47;;;1.95;;
19004;SDS011;9635;52.078;8.648;2023-06-05T14:36:36;3.03;;;1.88;;
19004;SDS011;9635;52.078;8.648;2023-06-05T14:41:39;3.90;;;2.08;;
19004;SDS011;9635;52.078;8.648;2023-06-05T14:46:42;3.15;;;1.90;;
19004;SDS011;9635;52.078;8.648;2023-06-05T14:51:47;3.08;;;2.00;;
19004;SDS011;9635;52.078;8.648;2023-06-05T14:56:50;3.08;;;2.40;;
19004;SDS011;9635;52.078;8.648;2023-06-05T15:01:53;4.07;;;2.10;;
19004;SDS011;9635;52.078;8.648;2023-06-05T15:06:57;3.55;;;1.60;;
19004;SDS011;9635;52.078;8.648;2023-06-05T15:12:00;3.13;;;1.98;;
19004;SDS011;9635;52.078;8.648;2023-06-05T15:17:04;1.85;;;1.75;;
19004;SDS011;9635;52.078;8.648;2023-06-05T15:22:09;2.13;;;1.92;;
19004;SDS011;9635;52.078;8.648;2023-06-05T15:27:12;2.45;;;1.77;;
19004;SDS011;9635;52.078;8.648;2023-06-05T15:32:15;3.78;;;2.08;;
19004;SDS011;9635;52.078;8.648;2023-06-05T15:37:22;4.07;;;2.28;;
19004;SDS011;9635;52.078;8.648;2023-06-05T15:42:26;2.10;;;1.90;;
19004;SDS011;9635;52.078;8.648;2023-06-05T15:47:30;3.03;;;2.10;;
19004;SDS011;9635;52.078;8.648;2023-06-05T15:52:35;4.07;;;2.00;;
19004;SDS011;9635;52.078;8.648;2023-06-05T15:57:39;3.95;;;2.10;;
19004;SDS011;9635;52.078;8.648;2023-06-05T16:02:44;2.75;;;1.83;;
19004;SDS011;9635;52.078;8.648;2023-06-05T16:07:49;7.90;;;4.20;;
19004;SDS011;9635;52.078;8.648;2023-06-05T16:12:52;4.80;;;3.70;;
19004;SDS011;9635;52.078;8.648;2023-06-05T16:17:54;4.85;;;3.45;;
19004;SDS011;9635;52.078;8.648;2023-06-05T16:22:59;6.78;;;2.10;;
19004;SDS011;9635;52.078;8.648;2023-06-05T16:28:02;3.50;;;2.20;;
19004;SDS011;9635;52.078;8.648;2023-06-05T16:33:04;7.63;;;2.47;;
19004;SDS011;9635;52.078;8.648;2023-06-05T16:38:09;2.80;;;2.08;;
19004;SDS011;9635;52.078;8.648;2023-06-05T16:43:12;4.25;;;2.17;;
19004;SDS011;9635;52.078;8.648;2023-06-05T16:48:14;4.22;;;1.95;;
19004;SDS011;9635;52.078;8.648;2023-06-05T16:53:19;3.22;;;2.35;;
19004;SDS011;9635;52.078;8.648;2023-06-05T16:58:22;2.45;;;2.20;;
19004;SDS011;9635;52.078;8.648;2023-06-05T17:03:25;4.47;;;1.95;;
19004;SDS011;9635;52.078;8.648;2023-06-05T17:08:29;2.22;;;2.00;;
19004;SDS011;9635;52.078;8.648;2023-06-05T17:13:32;4.53;;;2.20;;
19004;SDS011;9635;52.078;8.648;2023-06-05T17:18:35;4.00;;;2.50;;
19004;SDS011;9635;52.078;8.648;2023-06-05T17:23:39;9.60;;;2.45;;
19004;SDS011;9635;52.078;8.648;2023-06-05T17:28:42;2.95;;;2.58;;
19004;SDS011;9635;52.078;8.648;2023-06-05T17:33:45;3.45;;;2.35;;
19004;SDS011;9635;52.078;8.648;2023-06-05T17:38:49;3.45;;;2.28;;
19004;SDS011;9635;52.078;8.648;2023-06-05T17:43:52;5.45;;;3.60;;
19004;SDS011;9635;52.078;8.648;2023-06-05T17:48:56;3.55;;;2.40;;
19004;SDS011;9635;52.078;8.648;2023-06-05T17:54:00;4.22;;;2.22;;
19004;SDS011;9635;52.078;8.648;2023-06-05T17:59:04;3.95;;;2.35;;
19004;SDS011;9635;52.078;8.648;2023-06-05T18:04:07;5.35;;;2.53;;
19004;SDS011;9635;52.078;8.648;2023-06-05T18:09:12;4.68;;;3.10;;
19004;SDS011;9635;52.078;8.648;2023-06-05T18:14:15;2.90;;;2.55;;
19004;SDS011;9635;52.078;8.648;2023-06-05T18:19:19;11.27;;;7.38;;
19004;SDS011;9635;52.078;8.648;2023-06-05T18:24:24;10.13;;;5.82;;
19004;SDS011;9635;52.078;8.648;2023-06-05T18:29:27;6.68;;;4.38;;
19004;SDS011;9635;52.078;8.648;2023-06-05T18:34:30;3.42;;;3.05;;
19004;SDS011;9635;52.078;8.648;2023-06-05T18:39:36;4.95;;;3.67;;
19004;SDS011;9635;52.078;8.648;2023-06-05T18:44:38;5.55;;;2.80;;
19004;SDS011;9635;52.078;8.648;2023-06-05T18:49:42;4.90;;;3.78;;
19004;SDS011;9635;52.078;8.648;2023-06-05T18:54:46;4.63;;;3.65;;
19004;SDS011;9635;52.078;8.648;2023-06-05T18:59:49;4.00;;;3.00;;
19004;SDS011;9635;52.078;8.648;2023-06-05T19:04:53;3.63;;;2.45;;
19004;SDS011;9635;52.078;8.648;2023-06-05T19:09:57;3.17;;;2.28;;
19004;SDS011;9635;52.078;8.648;2023-06-05T19:15:01;3.03;;;2.60;;
19004;SDS011;9635;52.078;8.648;2023-06-05T19:20:05;3.30;;;2.40;;
19004;SDS011;9635;52.078;8.648;2023-06-05T19:25:10;4.63;;;3.03;;
19004;SDS011;9635;52.078;8.648;2023-06-05T19:30:15;4.97;;;3.20;;
19004;SDS011;9635;52.078;8.648;2023-06-05T19:35:18;4.88;;;2.63;;
19004;SDS011;9635;52.078;8.648;2023-06-05T19:40:22;4.82;;;3.05;;
19004;SDS011;9635;52.078;8.648;2023-06-05T19:45:25;3.28;;;2.85;;
19004;SDS011;9635;52.078;8.648;2023-06-05T19:50:28;3.70;;;3.40;;
19004;SDS011;9635;52.078;8.648;2023-06-05T19:55:33;4.95;;;3.40;;
19004;SDS011;9635;52.078;8.648;2023-06-05T20:00:36;5.72;;;3.40;;
19004;SDS011;9635;52.078;8.648;2023-06-05T20:05:38;5.97;;;3.60;;
19004;SDS011;9635;52.078;8.648;2023-06-05T20:10:42;7.43;;;3.67;;
19004;SDS011;9635;52.078;8.648;2023-06-05T20:15:45;6.82;;;4.28;;
19004;SDS011;9635;52.078;8.648;2023-06-05T20:20:48;4.90;;;4.00;;
19004;SDS011;9635;52.078;8.648;2023-06-05T20:25:54;4.47;;;3.58;;
19004;SDS011;9635;52.078;8.648;2023-06-05T20:30:56;8.63;;;4.65;;
19004;SDS011;9635;52.078;8.648;2023-06-05T20:35:59;10.75;;;4.97;;
19004;SDS011;9635;52.078;8.648;2023-06-05T20:41:09;9.27;;;4.18;;
19004;SDS011;9635;52.078;8.648;2023-06-05T20:46:14;7.75;;;4.30;;
19004;SDS011;9635;52.078;8.648;2023-06-05T20:51:21;10.57;;;4.10;;
19004;SDS011;9635;52.078;8.648;2023-06-05T20:56:26;8.27;;;5.03;;
19004;SDS011;9635;52.078;8.648;2023-06-05T21:01:30;10.52;;;4.65;;
19004;SDS011;9635;52.078;8.648;2023-06-05T21:06:35;5.72;;;4.63;;
19004;SDS011;9635;52.078;8.648;2023-06-05T21:11:39;6.43;;;4.38;;
19004;SDS011;9635;52.078;8.648;2023-06-05T21:16:42;14.07;;;5.25;;
19004;SDS011;9635;52.078;8.648;2023-06-05T21:21:45;7.70;;;5.00;;
19004;SDS011;9635;52.078;8.648;2023-06-05T21:26:49;9.18;;;5.07;;
19004;SDS011;9635;52.078;8.648;2023-06-05T21:31:52;10.60;;;5.28;;
19004;SDS011;9635;52.078;8.648;2023-06-05T21:36:55;11.90;;;5.28;;
19004;SDS011;9635;52.078;8.648;2023-06-05T21:42:02;10.27;;;5.13;;
19004;SDS011;9635;52.078;8.648;2023-06-05T21:47:05;8.35;;;5.10;;
19004;SDS011;9635;52.078;8.648;2023-06-05T21:52:09;9.25;;;5.13;;
19004;SDS011;9635;52.078;8.648;2023-06-05T21:57:15;10.95;;;4.85;;
19004;SDS011;9635;52.078;8.648;2023-06-05T22:02:17;6.88;;;5.22;;
19004;SDS011;9635;52.078;8.648;2023-06-05T22:07:20;9.20;;;5.43;;
19004;SDS011;9635;52.078;8.648;2023-06-05T22:12:25;6.97;;;5.20;;
19004;SDS011;9635;52.078;8.648;2023-06-05T22:17:30;6.43;;;5.50;;
19004;SDS011;9635;52.078;8.648;2023-06-05T22:22:37;10.43;;;5.88;;
19004;SDS011;9635;52.078;8.648;2023-06-05T22:27:41;10.18;;;5.43;;
19004;SDS011;9635;52.078;8.648;2023-06-05T22:32:44;11.48;;;5.28;;
19004;SDS011;9635;52.078;8.648;2023-06-05T22:37:49;10.40;;;5.22;;
19004;SDS011;9635;52.078;8.648;2023-06-05T22:42:54;9.50;;;4.53;;
19004;SDS011;9635;52.078;8.648;2023-06-05T22:47:56;9.70;;;5.80;;
19004;SDS011;9635;52.078;8.648;2023-06-05T22:53:02;8.18;;;4.50;;
19004;SDS011;9635;52.078;8.648;2023-06-05T22:58:06;5.70;;;5.07;;
19004;SDS011;9635;52.078;8.648;2023-06-05T23:03:09;13.95;;;5.95;;
19004;SDS011;9635;52.078;8.648;2023-06-05T23:08:13;8.68;;;5.40;;
19004;SDS011;9635;52.078;8.648;2023-06-05T23:13:17;9.27;;;5.65;;
19004;SDS011;9635;52.078;8.648;2023-06-05T23:18:22;9.63;;;5.78;;
19004;SDS011;9635;52.078;8.648;2023-06-05T23:23:25;10.77;;;5.47;;
19004;SDS011;9635;52.078;8.648;2023-06-05T23:28:29;10.32;;;5.57;;
19004;SDS011;9635;52.078;8.648;2023-06-05T23:33:32;7.60;;;6.13;;
19004;SDS011;9635;52.078;8.648;2023-06-05T23:38:35;9.80;;;5.65;;
19004;SDS011;9635;52.078;8.648;2023-06-05T23:43:39;10.70;;;5.80;;
19004;SDS011;9635;52.078;8.648;2023-06-05T23:48:42;11.68;;;5.70;;
19004;SDS011;9635;52.078;8.648;2023-06-05T23:59:23;9.00;;;6.28;;
